Time;durP1;ratioP1;P1;durP2;ratioP2;P2;SDS_P1;SDS_P2;PMS_P1;PMS_P2;Temp;Humidity;BMP_temperature;BMP_pressure;BME280_temperature;BME280_humidity;BME280_pressure;Samples;Min_cycle;Max_cycle;Signal;HPM_P1;HPM_P2
2021/11/30 00:01:07;;;;;;;;;12.67;12.67;;;;;;;;4855094;29;45354;-81
2021/11/30 00:03:33;;;;;;;;;13.00;10.33;;;;;;;;4871739;29;45672;-80
2021/11/30 00:06:06;;;;;;;;;11.00;11.00;;;;;;;;4872714;29;45409;-83
2021/11/30 00:08:33;;;;;;;;;12.33;11.33;;;;;;;;4855375;29;48110;-80
2021/11/30 00:10:59;;;;;;;;;11.00;9.33;;;;;;;;4858051;29;44818;-80
2021/11/30 00:13:25;;;;;;;;;12.00;12.00;;;;;;;;4873765;29;45599;-81
2021/11/30 00:15:52;;;;;;;;;12.67;12.00;;;;;;;;4855109;29;45528;-82
2021/11/30 00:18:19;;;;;;;;;14.00;12.00;;;;;;;;4855481;29;47240;-82
2021/11/30 00:20:44;;;;;;;;;13.33;11.67;;;;;;;;4855264;29;45433;-81
2021/11/30 00:23:10;;;;;;;;;10.67;10.67;;;;;;;;4871227;29;45907;-83
2021/11/30 00:25:35;;;;;;;;;14.00;9.00;;;;;;;;4873130;29;45375;-83
2021/11/30 00:28:01;;;;;;;;;10.00;10.00;;;;;;;;4854140;29;47175;-82
2021/11/30 00:30:28;;;;;;;;;13.33;13.00;;;;;;;;4854029;29;45587;-82
2021/11/30 00:32:53;;;;;;;;;12.33;10.00;;;;;;;;4870982;29;45349;-83
2021/11/30 00:35:19;;;;;;;;;16.00;12.67;;;;;;;;4871659;29;45448;-82
2021/11/30 00:37:44;;;;;;;;;10.00;9.00;;;;;;;;4871409;29;45395;-82
2021/11/30 00:40:10;;;;;;;;;13.33;11.33;;;;;;;;4854308;29;45668;-82
2021/11/30 00:42:37;;;;;;;;;17.33;13.00;;;;;;;;4871483;29;45249;-81
2021/11/30 00:45:05;;;;;;;;;13.33;10.33;;;;;;;;4870061;29;45805;-82
2021/11/30 00:47:30;;;;;;;;;10.00;10.00;;;;;;;;4852278;29;47924;-82
2021/11/30 00:49:57;;;;;;;;;13.67;10.67;;;;;;;;4870321;29;45766;-82
2021/11/30 00:52:22;;;;;;;;;10.00;10.00;;;;;;;;4852701;29;45488;-83
2021/11/30 00:54:49;;;;;;;;;11.33;11.33;;;;;;;;4869322;29;45391;-82
2021/11/30 00:57:15;;;;;;;;;13.33;13.00;;;;;;;;4846958;29;47401;-83
2021/11/30 00:59:41;;;;;;;;;15.33;12.67;;;;;;;;4852108;29;45572;-83
2021/11/30 01:02:06;;;;;;;;;11.00;11.00;;;;;;;;4836771;29;45505;-83
2021/11/30 01:04:31;;;;;;;;;13.00;13.00;;;;;;;;4834978;29;45639;-83
2021/11/30 01:06:56;;;;;;;;;10.00;10.00;;;;;;;;4852842;29;46715;-82
2021/11/30 01:09:22;;;;;;;;;13.00;11.00;;;;;;;;4834783;29;45520;-83
2021/11/30 01:11:47;;;;;;;;;10.67;10.33;;;;;;;;4850732;29;45408;-82
2021/11/30 01:14:12;;;;;;;;;10.00;10.00;;;;;;;;4850310;29;45488;-82
2021/11/30 01:16:38;;;;;;;;;14.33;10.33;;;;;;;;4848822;29;48091;-82
2021/11/30 01:19:04;;;;;;;;;16.33;11.67;;;;;;;;4832842;29;45697;-81
2021/11/30 01:21:30;;;;;;;;;10.33;9.00;;;;;;;;4850203;29;45916;-82
2021/11/30 01:23:56;;;;;;;;;11.00;10.00;;;;;;;;4832298;29;44888;-81
2021/11/30 01:26:21;;;;;;;;;10.00;9.00;;;;;;;;4849479;29;45401;-81
2021/11/30 01:28:46;;;;;;;;;13.00;13.00;;;;;;;;4851166;29;45491;-82
2021/11/30 01:31:13;;;;;;;;;13.00;11.00;;;;;;;;4850839;29;45413;-80
2021/11/30 01:33:38;;;;;;;;;10.00;10.00;;;;;;;;4850933;29;45486;-83
2021/11/30 01:36:04;;;;;;;;;13.00;11.67;;;;;;;;4851246;29;45763;-80
2021/11/30 01:38:31;;;;;;;;;15.00;12.33;;;;;;;;4834528;29;45516;-81
2021/11/30 01:40:57;;;;;;;;;11.00;11.00;;;;;;;;4833392;29;45397;-81
2021/11/30 01:43:39;;;;;;;;;13.67;10.67;;;;;;;;4832719;29;45749;-81
2021/11/30 01:46:12;;;;;;;;;11.67;11.67;;;;;;;;4848627;29;46082;-82
2021/11/30 01:51:23;;;;;;;;;9.00;7.67;;;;;;;;4849860;29;45843;-82
2021/11/30 01:53:48;;;;;;;;;9.67;9.33;;;;;;;;4832835;29;45434;-82
2021/11/30 01:56:14;;;;;;;;;15.00;12.33;;;;;;;;4831830;29;48406;-82
2021/11/30 01:58:39;;;;;;;;;14.00;10.00;;;;;;;;4866285;29;45380;-83
2021/11/30 02:01:06;;;;;;;;;12.33;10.67;;;;;;;;4867962;29;44820;-83
2021/11/30 02:03:31;;;;;;;;;12.33;11.33;;;;;;;;4851100;29;45451;-82
2021/11/30 02:05:58;;;;;;;;;16.00;11.33;;;;;;;;4850781;29;47170;-82
2021/11/30 02:08:23;;;;;;;;;8.00;7.67;;;;;;;;4868634;29;45410;-81
2021/11/30 02:10:49;;;;;;;;;13.00;13.00;;;;;;;;4852493;29;45378;-81
2021/11/30 02:13:15;;;;;;;;;10.33;10.33;;;;;;;;4872925;29;45870;-81
2021/11/30 02:15:45;;;;;;;;;12.00;11.00;;;;;;;;4875908;29;45958;-81
2021/11/30 02:18:21;;;;;;;;;13.33;13.00;;;;;;;;4858629;29;45448;-82
2021/11/30 02:20:47;;;;;;;;;14.00;11.00;;;;;;;;4858463;29;44842;-81
2021/11/30 02:23:35;;;;;;;;;10.33;10.00;;;;;;;;4876646;29;45875;-80
2021/11/30 02:26:06;;;;;;;;;11.67;10.33;;;;;;;;4858786;29;46881;-81
2021/11/30 02:28:31;;;;;;;;;10.67;10.67;;;;;;;;4876852;29;45418;-81
2021/11/30 02:30:56;;;;;;;;;15.00;13.00;;;;;;;;4877140;29;45411;-81
2021/11/30 02:33:22;;;;;;;;;13.33;11.00;;;;;;;;4878552;29;45435;-81
2021/11/30 02:35:47;;;;;;;;;8.67;7.67;;;;;;;;4859911;29;46947;-81
2021/11/30 02:38:14;;;;;;;;;13.33;10.33;;;;;;;;4876248;29;45734;-82
2021/11/30 02:40:39;;;;;;;;;7.00;7.00;;;;;;;;4859706;29;45473;-81
2021/11/30 02:43:05;;;;;;;;;14.33;14.33;;;;;;;;4877120;29;45413;-83
2021/11/30 02:45:30;;;;;;;;;14.00;11.00;;;;;;;;4875397;29;46439;-82
2021/11/30 02:47:56;;;;;;;;;6.00;6.00;;;;;;;;4876427;29;45480;-83
2021/11/30 02:50:21;;;;;;;;;15.00;12.67;;;;;;;;4860675;29;45355;-82
2021/11/30 02:52:46;;;;;;;;;10.67;10.67;;;;;;;;4876934;29;45420;-82
2021/11/30 02:55:12;;;;;;;;;12.33;10.33;;;;;;;;4876653;29;45697;-81
2021/11/30 02:57:37;;;;;;;;;11.00;10.00;;;;;;;;4876392;29;45427;-82
2021/11/30 03:00:05;;;;;;;;;10.00;10.00;;;;;;;;4859730;29;45984;-82
2021/11/30 03:02:32;;;;;;;;;7.67;6.67;;;;;;;;4876282;29;45474;-82
2021/11/30 03:04:58;;;;;;;;;13.33;11.33;;;;;;;;4875430;29;45487;-81
2021/11/30 03:07:26;;;;;;;;;12.67;11.00;;;;;;;;4855645;29;45468;-81
2021/11/30 03:09:52;;;;;;;;;12.67;12.67;;;;;;;;4839436;29;45364;-81
2021/11/30 03:12:17;;;;;;;;;13.67;12.33;;;;;;;;4840626;29;45960;-81
2021/11/30 03:14:42;;;;;;;;;10.00;10.00;;;;;;;;4839293;29;46834;-81
2021/11/30 03:17:08;;;;;;;;;13.67;10.00;;;;;;;;4862365;29;45578;-81
2021/11/30 03:19:33;;;;;;;;;12.00;12.00;;;;;;;;4857389;29;45439;-81
2021/11/30 03:22:01;;;;;;;;;5.67;5.33;;;;;;;;4857668;29;45404;-82
2021/11/30 03:24:27;;;;;;;;;11.00;11.00;;;;;;;;4872703;29;46241;-82
2021/11/30 03:26:52;;;;;;;;;14.00;13.00;;;;;;;;4853286;29;45363;-82
2021/11/30 03:29:17;;;;;;;;;9.00;9.00;;;;;;;;4871895;29;45630;-80
2021/11/30 03:34:10;;;;;;;;;11.00;10.67;;;;;;;;4871020;29;46076;-81
2021/11/30 03:36:36;;;;;;;;;7.33;7.33;;;;;;;;4854759;29;46775;-81
2021/11/30 03:39:03;;;;;;;;;14.33;11.67;;;;;;;;4869708;29;45343;-82
2021/11/30 03:41:31;;;;;;;;;14.00;12.33;;;;;;;;4855215;29;45397;-81
2021/11/30 03:47:01;;;;;;;;;14.33;14.00;;;;;;;;4871204;29;45844;-81
2021/11/30 03:49:27;;;;;;;;;14.00;12.33;;;;;;;;4871066;29;45451;-82
2021/11/30 03:51:53;;;;;;;;;15.00;12.67;;;;;;;;4855401;29;44907;-82
2021/11/30 03:54:18;;;;;;;;;14.67;11.67;;;;;;;;4854483;29;45524;-82
2021/11/30 03:56:45;;;;;;;;;15.00;14.33;;;;;;;;4853435;29;45523;-82
2021/11/30 03:59:11;;;;;;;;;14.67;13.33;;;;;;;;4870255;29;45978;-83
2021/11/30 04:01:36;;;;;;;;;9.67;9.00;;;;;;;;4854455;29;45441;-82
2021/11/30 04:04:08;;;;;;;;;11.00;11.00;;;;;;;;4870879;29;46423;-82
2021/11/30 04:06:33;;;;;;;;;14.00;11.00;;;;;;;;4869729;29;45513;-82
2021/11/30 04:08:59;;;;;;;;;11.00;10.00;;;;;;;;4869718;29;45391;-82
2021/11/30 04:11:25;;;;;;;;;14.00;13.33;;;;;;;;4872912;29;45472;-83
2021/11/30 04:13:50;;;;;;;;;12.00;11.00;;;;;;;;4872322;29;45516;-83
2021/11/30 04:16:16;;;;;;;;;9.33;9.00;;;;;;;;4871201;29;45344;-82
2021/11/30 04:18:42;;;;;;;;;11.67;11.67;;;;;;;;4854935;29;45587;-81
2021/11/30 04:21:07;;;;;;;;;14.00;11.00;;;;;;;;4847278;29;45384;-81
2021/11/30 04:23:33;;;;;;;;;12.33;11.00;;;;;;;;4848574;29;48384;-81
2021/11/30 04:25:58;;;;;;;;;10.00;9.33;;;;;;;;4834847;29;45385;-81
2021/11/30 04:28:24;;;;;;;;;14.00;11.00;;;;;;;;4832446;29;45449;-82
2021/11/30 04:30:49;;;;;;;;;14.67;11.67;;;;;;;;4835073;29;45406;-81
2021/11/30 04:33:15;;;;;;;;;12.00;11.67;;;;;;;;4835670;29;46334;-82
2021/11/30 04:35:41;;;;;;;;;14.00;14.00;;;;;;;;4832135;29;45765;-82
2021/11/30 04:38:06;;;;;;;;;10.67;10.67;;;;;;;;4849090;29;45488;-82
2021/11/30 04:40:31;;;;;;;;;12.00;12.00;;;;;;;;4834647;29;45508;-82
2021/11/30 04:42:56;;;;;;;;;10.67;10.00;;;;;;;;4834751;29;47788;-81
2021/11/30 04:45:50;;;;;;;;;10.33;9.33;;;;;;;;4835991;29;45391;-81
2021/11/30 04:48:15;;;;;;;;;11.33;11.33;;;;;;;;4835328;29;45529;-81
2021/11/30 04:50:43;;;;;;;;;6.67;6.67;;;;;;;;4832525;29;45495;-81
2021/11/30 04:53:08;;;;;;;;;10.00;10.00;;;;;;;;4832296;29;48175;-82
2021/11/30 04:55:34;;;;;;;;;10.33;10.33;;;;;;;;4831080;29;45524;-83
2021/11/30 04:58:01;;;;;;;;;10.67;9.67;;;;;;;;4851992;29;45597;-83
2021/11/30 05:00:27;;;;;;;;;13.00;13.00;;;;;;;;4882745;29;45545;-82
2021/11/30 05:02:52;;;;;;;;;11.00;11.00;;;;;;;;4888800;29;46913;-81
2021/11/30 05:05:18;;;;;;;;;11.67;10.00;;;;;;;;4888160;29;45446;-82
2021/11/30 05:07:43;;;;;;;;;10.33;10.33;;;;;;;;4886850;29;45472;-82
2021/11/30 05:10:10;;;;;;;;;13.00;8.33;;;;;;;;4888450;29;45311;-82
2021/11/30 05:12:36;;;;;;;;;7.00;7.00;;;;;;;;4889735;29;45525;-81
2021/11/30 05:15:02;;;;;;;;;10.00;8.33;;;;;;;;4889436;29;45744;-81
2021/11/30 05:17:27;;;;;;;;;10.67;10.67;;;;;;;;4891049;29;45555;-81
2021/11/30 05:19:52;;;;;;;;;11.00;9.33;;;;;;;;4890321;29;45379;-81
2021/11/30 05:22:18;;;;;;;;;10.33;10.33;;;;;;;;4889651;29;47016;-82
2021/11/30 05:24:44;;;;;;;;;10.67;10.00;;;;;;;;4889527;29;45880;-82
2021/11/30 05:27:09;;;;;;;;;15.00;9.50;;;;;;;;4890343;29;45504;-81
2021/11/30 05:29:34;;;;;;;;;10.00;9.67;;;;;;;;4891411;29;45539;-82
2021/11/30 05:31:59;;;;;;;;;10.00;7.67;;;;;;;;4891315;29;45397;-81
2021/11/30 05:34:25;;;;;;;;;9.00;9.00;;;;;;;;4873077;29;45483;-81
2021/11/30 05:36:50;;;;;;;;;12.00;10.67;;;;;;;;4890121;29;45404;-82
2021/11/30 05:39:15;;;;;;;;;11.00;11.00;;;;;;;;4890968;29;45411;-81
2021/11/30 05:41:41;;;;;;;;;9.67;9.67;;;;;;;;4874944;29;47214;-81
2021/11/30 05:44:06;;;;;;;;;10.33;10.33;;;;;;;;4889449;29;45382;-82
2021/11/30 05:46:35;;;;;;;;;8.67;8.67;;;;;;;;4889255;29;45383;-81
2021/11/30 05:49:00;;;;;;;;;8.33;8.33;;;;;;;;4889399;29;45395;-82
2021/11/30 05:51:25;;;;;;;;;9.00;8.00;;;;;;;;4871883;29;46806;-81
2021/11/30 05:53:51;;;;;;;;;3.67;3.67;;;;;;;;4888510;29;45514;-82
2021/11/30 05:56:16;;;;;;;;;9.67;6.33;;;;;;;;4871435;29;45598;-81
2021/11/30 05:58:43;;;;;;;;;12.33;10.00;;;;;;;;4891107;29;45414;-82
2021/11/30 06:01:55;;;;;;;;;11.00;11.00;;;;;;;;4893896;29;45402;-82
2021/11/30 06:06:29;;;;;;;;;11.67;10.00;;;;;;;;4892402;29;44801;-82
2021/11/30 06:08:54;;;;;;;;;10.00;10.00;;;;;;;;4877523;29;45397;-82
2021/11/30 06:11:20;;;;;;;;;10.00;10.00;;;;;;;;4891037;29;45972;-81
2021/11/30 06:13:45;;;;;;;;;9.67;9.67;;;;;;;;4889282;29;45743;-82
2021/11/30 06:16:10;;;;;;;;;9.67;9.67;;;;;;;;4890444;29;45397;-82
2021/11/30 06:18:36;;;;;;;;;11.00;10.33;;;;;;;;4873910;29;45329;-82
2021/11/30 06:21:02;;;;;;;;;6.00;6.00;;;;;;;;4891492;29;45370;-81
2021/11/30 06:23:33;;;;;;;;;12.00;10.00;;;;;;;;4873283;29;45427;-81
2021/11/30 06:25:59;;;;;;;;;11.33;9.00;;;;;;;;4891372;29;45358;-81
2021/11/30 06:28:24;;;;;;;;;10.33;10.33;;;;;;;;4873739;29;45484;-82
2021/11/30 06:33:52;;;;;;;;;9.33;6.67;;;;;;;;4889181;29;45720;-82
2021/11/30 06:36:17;;;;;;;;;8.00;6.33;;;;;;;;4872273;29;45410;-82
2021/11/30 06:38:43;;;;;;;;;7.33;7.33;;;;;;;;4871305;29;45533;-82
2021/11/30 06:41:08;;;;;;;;;11.33;9.67;;;;;;;;4855236;29;48438;-82
2021/11/30 06:43:33;;;;;;;;;9.33;9.33;;;;;;;;4890090;29;45504;-82
2021/11/30 06:45:58;;;;;;;;;12.00;11.67;;;;;;;;4890305;29;45449;-83
2021/11/30 06:48:24;;;;;;;;;11.00;9.00;;;;;;;;4890446;29;45427;-84
2021/11/30 06:50:49;;;;;;;;;8.33;7.00;;;;;;;;4874188;29;47144;-83
2021/11/30 06:53:15;;;;;;;;;9.33;9.33;;;;;;;;4889775;29;45517;-81
2021/11/30 06:55:41;;;;;;;;;12.00;11.00;;;;;;;;4874732;29;45730;-82
2021/11/30 06:58:06;;;;;;;;;9.33;9.33;;;;;;;;4889430;29;45416;-81
2021/11/30 07:00:31;;;;;;;;;13.33;12.00;;;;;;;;4891704;29;45414;-81
2021/11/30 07:02:58;;;;;;;;;11.33;10.67;;;;;;;;4894304;29;45314;-82
2021/11/30 07:05:31;;;;;;;;;;;;;;;;;;;;;
2021/11/30 07:10:39;;;;;;;;;12.67;12.67;;;;;;;;4893590;29;45490;-82
2021/11/30 07:15:51;;;;;;;;;10.67;10.00;;;;;;;;4892142;29;45440;-81
2021/11/30 07:18:16;;;;;;;;;14.00;11.00;;;;;;;;4876172;29;45388;-83
2021/11/30 07:20:43;;;;;;;;;11.33;11.33;;;;;;;;4874207;29;48040;-83
2021/11/30 07:23:08;;;;;;;;;14.00;13.33;;;;;;;;4892745;29;45413;-83
2021/11/30 07:25:34;;;;;;;;;14.00;14.00;;;;;;;;4909072;29;45388;-82
2021/11/30 07:27:59;;;;;;;;;16.67;14.33;;;;;;;;4879047;29;45427;-82
2021/11/30 07:30:25;;;;;;;;;12.67;11.33;;;;;;;;4878655;29;47102;-82
2021/11/30 07:32:50;;;;;;;;;11.33;10.00;;;;;;;;4878625;29;45402;-82
2021/11/30 07:35:18;;;;;;;;;15.00;14.00;;;;;;;;4895767;28;45417;-81
2021/11/30 07:37:43;;;;;;;;;14.67;14.33;;;;;;;;4883123;29;45577;-82
2021/11/30 07:40:09;;;;;;;;;16.00;12.00;;;;;;;;4892956;29;45487;-82
2021/11/30 07:42:34;;;;;;;;;12.00;12.00;;;;;;;;4876660;29;45484;-81
2021/11/30 07:45:01;;;;;;;;;16.00;14.67;;;;;;;;4875962;29;44785;-82
2021/11/30 07:47:27;;;;;;;;;12.00;10.67;;;;;;;;4877877;29;45574;-81
2021/11/30 07:49:52;;;;;;;;;16.00;13.67;;;;;;;;4892700;29;45453;-82
2021/11/30 07:52:18;;;;;;;;;15.67;15.00;;;;;;;;4874159;29;45823;-82
2021/11/30 07:54:45;;;;;;;;;16.00;14.00;;;;;;;;4876180;29;44831;-81
2021/11/30 07:57:10;;;;;;;;;18.67;15.00;;;;;;;;4874701;29;45853;-81
2021/11/30 07:59:36;;;;;;;;;14.67;14.00;;;;;;;;4871530;29;47680;-80
2021/11/30 08:02:05;;;;;;;;;16.33;16.33;;;;;;;;4871555;29;45444;-82
2021/11/30 08:04:30;;;;;;;;;16.00;15.67;;;;;;;;4871558;29;45478;-82
2021/11/30 08:06:56;;;;;;;;;20.33;16.33;;;;;;;;4853279;29;45404;-82
2021/11/30 08:09:21;;;;;;;;;14.67;14.00;;;;;;;;4854393;29;47935;-81
2021/11/30 08:11:49;;;;;;;;;10.67;10.67;;;;;;;;4871647;29;45370;-81
2021/11/30 08:14:15;;;;;;;;;15.67;15.00;;;;;;;;4857261;29;45356;-81
2021/11/30 08:16:41;;;;;;;;;15.33;15.00;;;;;;;;4855877;29;45521;-81
2021/11/30 08:19:07;;;;;;;;;16.00;12.33;;;;;;;;4862618;29;46329;-82
2021/11/30 08:21:32;;;;;;;;;12.33;11.00;;;;;;;;4864013;29;45622;-82
2021/11/30 08:23:59;;;;;;;;;18.67;17.00;;;;;;;;4867587;29;45449;-82
2021/11/30 08:26:24;;;;;;;;;15.67;15.67;;;;;;;;4873986;29;45354;-83
2021/11/30 08:28:50;;;;;;;;;16.33;14.33;;;;;;;;4870558;29;46857;-82
2021/11/30 08:31:15;;;;;;;;;18.33;15.67;;;;;;;;4856424;29;45606;-82
2021/11/30 08:33:40;;;;;;;;;14.67;13.33;;;;;;;;4857989;29;45647;-82
2021/11/30 08:36:08;;;;;;;;;17.00;15.00;;;;;;;;4857152;29;45114;-82
2021/11/30 08:38:37;;;;;;;;;19.33;17.33;;;;;;;;4857771;29;47275;-81
2021/11/30 08:41:02;;;;;;;;;17.00;15.33;;;;;;;;4854890;29;45494;-83
2021/11/30 08:43:28;;;;;;;;;20.33;19.00;;;;;;;;4875065;29;45486;-80
2021/11/30 08:45:55;;;;;;;;;15.67;15.67;;;;;;;;4877533;29;45487;-83
2021/11/30 08:48:20;;;;;;;;;21.33;18.33;;;;;;;;4858976;29;47832;-80
2021/11/30 08:50:46;;;;;;;;;19.00;16.00;;;;;;;;4857158;29;44813;-81
2021/11/30 08:53:12;;;;;;;;;21.67;20.00;;;;;;;;4875967;29;45435;-84
2021/11/30 08:55:37;;;;;;;;;15.00;14.00;;;;;;;;4876680;29;44848;-83
2021/11/30 08:58:03;;;;;;;;;19.00;17.67;;;;;;;;4858068;29;48112;-82
2021/11/30 09:00:30;;;;;;;;;16.33;16.33;;;;;;;;4859916;29;45335;-81
2021/11/30 09:02:55;;;;;;;;;19.00;18.67;;;;;;;;4873617;29;45736;-84
2021/11/30 09:05:21;;;;;;;;;21.67;20.00;;;;;;;;4876567;29;45935;-83
2021/11/30 09:07:47;;;;;;;;;19.00;17.67;;;;;;;;4873004;29;46823;-82
2021/11/30 09:10:17;;;;;;;;;16.33;15.67;;;;;;;;4876766;29;45282;-84
2021/11/30 09:12:48;;;;;;;;;17.67;15.33;;;;;;;;4868929;29;45376;-84
2021/11/30 09:15:14;;;;;;;;;19.00;15.00;;;;;;;;4874146;29;45329;-83
2021/11/30 09:17:44;;;;;;;;;20.00;17.00;;;;;;;;4905205;29;45463;-83
2021/11/30 09:20:10;;;;;;;;;19.00;17.00;;;;;;;;4877307;29;45414;-82
2021/11/30 09:22:36;;;;;;;;;15.67;15.67;;;;;;;;4898686;29;45520;-82
2021/11/30 09:25:04;;;;;;;;;15.67;15.67;;;;;;;;4894685;29;45405;-83
2021/11/30 09:27:30;;;;;;;;;19.33;19.33;;;;;;;;4894740;29;45375;-82
2021/11/30 09:29:56;;;;;;;;;19.33;19.33;;;;;;;;4895804;29;45339;-83
2021/11/30 09:32:26;;;;;;;;;18.67;16.33;;;;;;;;4877821;29;45394;-82
2021/11/30 09:34:51;;;;;;;;;20.00;16.67;;;;;;;;4893883;29;45515;-83
2021/11/30 09:37:20;;;;;;;;;19.67;15.33;;;;;;;;4894741;29;45863;-83
2021/11/30 09:39:46;;;;;;;;;22.67;19.33;;;;;;;;4894972;29;44844;-83
2021/11/30 09:42:14;;;;;;;;;20.00;17.00;;;;;;;;4876624;29;45427;-82
2021/11/30 09:44:42;;;;;;;;;17.33;14.33;;;;;;;;4874711;29;45585;-85
2021/11/30 09:47:33;;;;;;;;;20.33;18.00;;;;;;;;4875357;29;45840;-85
2021/11/30 09:49:57;;;;;;;;;26.00;24.33;;;;;;;;4890804;29;45343;-83
2021/11/30 09:52:23;;;;;;;;;21.67;18.00;;;;;;;;4876589;29;45814;-83
2021/11/30 09:54:50;;;;;;;;;21.67;20.67;;;;;;;;4878032;29;45670;-82
2021/11/30 09:57:16;;;;;;;;;21.67;18.33;;;;;;;;4872327;29;45722;-83
2021/11/30 09:59:47;;;;;;;;;21.33;20.67;;;;;;;;4865238;29;44844;-83
2021/11/30 10:02:22;;;;;;;;;25.33;25.00;;;;;;;;4897630;28;44802;-84
2021/11/30 10:04:47;;;;;;;;;21.33;19.67;;;;;;;;4879164;29;45557;-84
2021/11/30 10:07:15;;;;;;;;;20.33;20.00;;;;;;;;4874140;29;45699;-83
2021/11/30 10:09:41;;;;;;;;;17.00;15.00;;;;;;;;4874393;29;45465;-86
2021/11/30 10:12:08;;;;;;;;;20.33;16.00;;;;;;;;4874810;29;45439;-84
2021/11/30 10:14:36;;;;;;;;;21.67;20.33;;;;;;;;4872503;29;45578;-83
2021/11/30 10:17:10;;;;;;;;;28.33;22.33;;;;;;;;4870295;29;46883;-83
2021/11/30 10:19:36;;;;;;;;;21.33;21.33;;;;;;;;4873450;29;44930;-82
2021/11/30 10:22:02;;;;;;;;;24.67;18.67;;;;;;;;4868989;29;45422;-82
2021/11/30 10:24:28;;;;;;;;;20.00;17.33;;;;;;;;4878810;29;45484;-81
2021/11/30 10:26:57;;;;;;;;;25.33;23.67;;;;;;;;4871548;29;46935;-82
2021/11/30 10:29:22;;;;;;;;;23.33;21.67;;;;;;;;4870140;29;45459;-82
2021/11/30 10:31:49;;;;;;;;;12.00;11.33;;;;;;;;4874053;29;45300;-83
2021/11/30 10:34:19;;;;;;;;;20.33;19.33;;;;;;;;4874775;29;45670;-82
2021/11/30 10:36:57;;;;;;;;;19.00;16.00;;;;;;;;4874108;29;46963;-83
2021/11/30 10:39:27;;;;;;;;;21.00;18.00;;;;;;;;4876386;29;45365;-82
2021/11/30 10:42:10;;;;;;;;;18.00;18.00;;;;;;;;4874667;29;45433;-82
2021/11/30 10:44:44;;;;;;;;;15.00;13.33;;;;;;;;4875708;29;45505;-83
2021/11/30 10:50:14;;;;;;;;;15.67;12.00;;;;;;;;4873709;29;45373;-83
2021/11/30 10:52:41;;;;;;;;;17.00;17.00;;;;;;;;4885496;29;45575;-83
2021/11/30 10:55:07;;;;;;;;;22.67;21.67;;;;;;;;4897242;29;45318;-84
2021/11/30 10:57:32;;;;;;;;;19.00;16.33;;;;;;;;4873730;29;46880;-83
2021/11/30 11:00:27;;;;;;;;;15.33;14.67;;;;;;;;4878889;29;44899;-83
2021/11/30 11:03:06;;;;;;;;;15.33;15.33;;;;;;;;4907967;29;45375;-82
2021/11/30 11:05:41;;;;;;;;;14.00;13.67;;;;;;;;4880238;29;45439;-84
2021/11/30 11:08:10;;;;;;;;;17.33;12.67;;;;;;;;4876139;29;47264;-83
2021/11/30 11:10:37;;;;;;;;;16.00;11.33;;;;;;;;4877505;29;45399;-82
2021/11/30 11:13:32;;;;;;;;;12.33;10.00;;;;;;;;4902787;29;44851;-84
2021/11/30 11:16:28;;;;;;;;;15.67;15.67;;;;;;;;4903212;29;44964;-84
2021/11/30 11:18:58;;;;;;;;;14.67;12.00;;;;;;;;4901085;29;45344;-84
2021/11/30 11:21:30;;;;;;;;;16.33;16.33;;;;;;;;4866337;29;44808;-83
2021/11/30 11:24:14;;;;;;;;;13.67;12.00;;;;;;;;4890867;29;45446;-82
2021/11/30 11:26:44;;;;;;;;;13.00;12.00;;;;;;;;4897812;29;45384;-82
2021/11/30 11:29:15;;;;;;;;;15.33;12.00;;;;;;;;4912765;29;46532;-83
2021/11/30 11:31:51;;;;;;;;;11.00;11.00;;;;;;;;4890523;29;45601;-82
2021/11/30 11:34:23;;;;;;;;;13.00;12.00;;;;;;;;4900349;29;45460;-83
2021/11/30 11:40:19;;;;;;;;;11.33;11.33;;;;;;;;4896233;29;45438;-83
2021/11/30 11:45:33;;;;;;;;;13.00;13.00;;;;;;;;4878234;29;45438;-85
2021/11/30 11:51:06;;;;;;;;;11.33;11.33;;;;;;;;4888477;29;46211;-84
2021/11/30 11:53:37;;;;;;;;;16.67;15.00;;;;;;;;4893517;29;45521;-86
2021/11/30 12:03:10;;;;;;;;;13.00;12.00;;;;;;;;4820149;29;46497;-85
2021/11/30 12:05:57;;;;;;;;;11.00;11.00;;;;;;;;4810781;29;45285;-85
2021/11/30 12:08:27;;;;;;;;;12.33;12.33;;;;;;;;4810468;29;45886;-85
2021/11/30 12:10:59;;;;;;;;;14.00;14.00;;;;;;;;4807347;29;45494;-84
2021/11/30 12:16:50;;;;;;;;;11.67;11.00;;;;;;;;4842418;29;45718;-83
2021/11/30 12:19:27;;;;;;;;;12.00;9.00;;;;;;;;4879685;29;44813;-84
2021/11/30 12:22:26;;;;;;;;;12.67;12.33;;;;;;;;4879746;29;44972;-85
2021/11/30 12:25:16;;;;;;;;;;;;;;;;;;;;;
2021/11/30 12:27:55;;;;;;;;;12.00;12.00;;;;;;;;4854306;29;71811;-84
2021/11/30 12:30:45;;;;;;;;;15.67;13.67;;;;;;;;4839492;29;45345;-84
2021/11/30 12:37:05;;;;;;;;;10.33;9.00;;;;;;;;4803197;29;45467;-86
2021/11/30 12:39:52;;;;;;;;;9.67;9.33;;;;;;;;4785873;29;44936;-86
2021/11/30 12:42:21;;;;;;;;;14.67;12.67;;;;;;;;4822293;29;45493;-83
2021/11/30 12:45:16;;;;;;;;;11.33;10.67;;;;;;;;4841256;29;45442;-82
2021/11/30 12:47:40;;;;;;;;;14.00;12.67;;;;;;;;4845733;29;45404;-82
2021/11/30 12:50:18;;;;;;;;;13.00;9.33;;;;;;;;4836501;29;45396;-81
2021/11/30 12:53:00;;;;;;;;;11.33;11.33;;;;;;;;4853821;29;45446;-82
2021/11/30 12:55:26;;;;;;;;;8.67;8.67;;;;;;;;4837823;29;45604;-82
2021/11/30 12:57:51;;;;;;;;;12.00;12.00;;;;;;;;4844297;29;45368;-85
2021/11/30 13:00:29;;;;;;;;;19.00;19.00;;;;;;;;4833396;29;44760;-83
2021/11/30 13:03:13;;;;;;;;;10.67;10.67;;;;;;;;4864911;29;45811;-83
2021/11/30 13:05:50;;;;;;;;;11.33;9.00;;;;;;;;4872057;29;45479;-84
2021/11/30 13:08:16;;;;;;;;;14.00;11.33;;;;;;;;4864940;29;47841;-84
2021/11/30 13:10:47;;;;;;;;;11.67;10.33;;;;;;;;4862332;29;45505;-83
2021/11/30 13:13:27;;;;;;;;;15.33;12.67;;;;;;;;4902214;29;45461;-84
2021/11/30 13:15:54;;;;;;;;;14.00;12.67;;;;;;;;4869642;29;45510;-83
2021/11/30 13:18:20;;;;;;;;;10.33;10.33;;;;;;;;4870021;29;45593;-83
2021/11/30 13:20:46;;;;;;;;;14.33;13.33;;;;;;;;4862131;29;46124;-83
2021/11/30 13:23:25;;;;;;;;;14.00;13.00;;;;;;;;4860393;29;45304;-84
2021/11/30 13:26:26;;;;;;;;;18.00;14.67;;;;;;;;4852038;29;45963;-86
2021/11/30 13:29:02;;;;;;;;;;;;;;;;;;;;;
2021/11/30 13:31:39;;;;;;;;;10.00;9.67;;;;;;;;4872739;29;73084;-84
2021/11/30 13:34:25;;;;;;;;;15.00;13.33;;;;;;;;4875492;29;45529;-83
2021/11/30 13:36:56;;;;;;;;;12.00;12.00;;;;;;;;4851433;29;45769;-83
2021/11/30 13:39:25;;;;;;;;;15.00;14.33;;;;;;;;4895695;29;45503;-83
2021/11/30 13:41:59;;;;;;;;;19.67;17.00;;;;;;;;4898961;29;45554;-83
2021/11/30 13:44:30;;;;;;;;;15.33;14.67;;;;;;;;4866745;29;45499;-83
2021/11/30 13:46:56;;;;;;;;;13.67;13.67;;;;;;;;4874026;29;45452;-83
2021/11/30 13:49:24;;;;;;;;;17.00;16.67;;;;;;;;4865295;29;45256;-83
2021/11/30 13:51:52;;;;;;;;;15.00;15.00;;;;;;;;4872567;29;44832;-84
2021/11/30 14:00:37;;;;;;;;;13.67;12.67;;;;;;;;4893032;28;45473;-84
2021/11/30 14:03:03;;;;;;;;;15.33;14.00;;;;;;;;4891610;29;44902;-82
2021/11/30 14:05:31;;;;;;;;;18.67;15.00;;;;;;;;4891402;29;45520;-82
2021/11/30 14:07:58;;;;;;;;;13.33;12.67;;;;;;;;4909830;29;45375;-83
2021/11/30 14:10:25;;;;;;;;;14.00;13.00;;;;;;;;4864047;29;45602;-82
2021/11/30 14:12:53;;;;;;;;;9.00;8.00;;;;;;;;4865674;29;44877;-84
2021/11/30 14:15:20;;;;;;;;;14.00;13.67;;;;;;;;4891402;29;45474;-83
2021/11/30 14:17:47;;;;;;;;;14.33;14.33;;;;;;;;4876165;29;45016;-83
2021/11/30 14:20:17;;;;;;;;;14.00;14.00;;;;;;;;4890677;29;46990;-83
2021/11/30 14:22:43;;;;;;;;;12.67;12.00;;;;;;;;4874294;29;45474;-82
2021/11/30 14:25:09;;;;;;;;;12.67;12.67;;;;;;;;4874708;29;45449;-83
2021/11/30 14:27:40;;;;;;;;;13.33;13.33;;;;;;;;4890222;29;45462;-84
2021/11/30 14:30:10;;;;;;;;;12.00;11.33;;;;;;;;4873598;29;48067;-83
2021/11/30 14:32:39;;;;;;;;;16.33;16.33;;;;;;;;4889098;29;45549;-83
2021/11/30 14:35:06;;;;;;;;;12.33;11.67;;;;;;;;4889825;29;45282;-84
2021/11/30 14:37:45;;;;;;;;;12.00;12.00;;;;;;;;4889033;29;45482;-83
2021/11/30 14:40:10;;;;;;;;;10.33;10.33;;;;;;;;4865524;29;46944;-84
2021/11/30 14:42:39;;;;;;;;;12.33;12.33;;;;;;;;4870823;29;45547;-84
2021/11/30 14:45:23;;;;;;;;;14.33;14.33;;;;;;;;4868020;29;45426;-84
2021/11/30 14:48:12;;;;;;;;;13.00;13.00;;;;;;;;4891182;29;45559;-83
2021/11/30 14:50:38;;;;;;;;;16.00;14.67;;;;;;;;4871777;29;47161;-83
2021/11/30 14:53:04;;;;;;;;;13.33;12.00;;;;;;;;4869702;29;46169;-83
2021/11/30 14:55:34;;;;;;;;;17.33;13.67;;;;;;;;4887490;29;45597;-82
2021/11/30 14:58:08;;;;;;;;;22.00;16.00;;;;;;;;4867063;29;45467;-83
2021/11/30 15:00:38;;;;;;;;;13.67;12.67;;;;;;;;4865983;29;46833;-83
2021/11/30 15:03:18;;;;;;;;;13.67;12.00;;;;;;;;4863379;29;45811;-83
2021/11/30 15:05:49;;;;;;;;;15.00;14.00;;;;;;;;4874163;29;45463;-82
2021/11/30 15:08:23;;;;;;;;;15.33;13.00;;;;;;;;4870863;29;45750;-83
2021/11/30 15:10:56;;;;;;;;;14.67;14.00;;;;;;;;4871472;29;46678;-83
2021/11/30 15:13:30;;;;;;;;;9.00;8.67;;;;;;;;4873389;29;45987;-83
2021/11/30 15:15:57;;;;;;;;;14.33;9.33;;;;;;;;4871538;29;44786;-83
2021/11/30 15:18:22;;;;;;;;;12.33;9.67;;;;;;;;4872137;29;45838;-84
2021/11/30 15:20:50;;;;;;;;;14.67;14.67;;;;;;;;4874986;29;45526;-85
2021/11/30 15:23:20;;;;;;;;;14.00;13.33;;;;;;;;4860096;29;44962;-84